sensor_id;sensor_type;location;lat;lon;timestamp;pressure;altitude;pressure_sealevel;temperature;humidity
27014;BME280;14556;52.222;4.510;2023-05-22T00:00:54;100915.91;;;10.68;100.00
27014;BME280;14556;52.222;4.510;2023-05-22T00:03:21;100911.31;;;10.62;100.00
27014;BME280;14556;52.222;4.510;2023-05-22T00:05:49;100904.69;;;10.58;100.00
27014;BME280;14556;52.222;4.510;2023-05-22T00:08:18;100909.09;;;10.66;100.00
27014;BME280;14556;52.222;4.510;2023-05-22T00:10:44;100910.72;;;10.67;100.00
27014;BME280;14556;52.222;4.510;2023-05-22T00:13:11;100903.94;;;10.64;100.00
27014;BME280;14556;52.222;4.510;2023-05-22T00:15:37;100882.84;;;10.47;100.00
27014;BME280;14556;52.222;4.510;2023-05-22T00:18:04;100898.97;;;10.61;100.00
27014;BME280;14556;52.222;4.510;2023-05-22T00:20:31;100895.25;;;10.55;100.00
27014;BME280;14556;52.222;4.510;2023-05-22T00:22:58;100903.28;;;10.62;100.00
27014;BME280;14556;52.222;4.510;2023-05-22T00:25:26;100891.31;;;10.58;100.00
27014;BME280;14556;52.222;4.510;2023-05-22T00:27:52;100876.66;;;10.47;100.00
27014;BME280;14556;52.222;4.510;2023-05-22T00:30:19;100896.69;;;10.58;100.00
27014;BME280;14556;52.222;4.510;2023-05-22T00:32:45;100894.41;;;10.55;100.00
27014;BME280;14556;52.222;4.510;2023-05-22T00:35:12;100894.19;;;10.56;100.00
27014;BME280;14556;52.222;4.510;2023-05-22T00:37:39;100901.22;;;10.57;100.00
27014;BME280;14556;52.222;4.510;2023-05-22T00:40:06;100896.66;;;10.51;100.00
27014;BME280;14556;52.222;4.510;2023-05-22T00:42:33;100906.78;;;10.56;100.00
27014;BME280;14556;52.222;4.510;2023-05-22T00:45:00;100906.13;;;10.54;100.00
27014;BME280;14556;52.222;4.510;2023-05-22T00:47:26;100909.66;;;10.54;100.00
27014;BME280;14556;52.222;4.510;2023-05-22T00:49:53;100913.13;;;10.55;100.00
27014;BME280;14556;52.222;4.510;2023-05-22T00:52:20;100902.56;;;10.46;100.00
27014;BME280;14556;52.222;4.510;2023-05-22T00:54:48;100907.97;;;10.53;100.00
27014;BME280;14556;52.222;4.510;2023-05-22T00:57:16;100899.88;;;10.46;100.00
27014;BME280;14556;52.222;4.510;2023-05-22T00:59:43;100913.31;;;10.53;100.00
27014;BME280;14556;52.222;4.510;2023-05-22T01:02:10;100914.56;;;10.50;100.00
27014;BME280;14556;52.222;4.510;2023-05-22T01:04:38;100905.06;;;10.48;100.00
27014;BME280;14556;52.222;4.510;2023-05-22T01:07:05;100916.00;;;10.53;100.00
27014;BME280;14556;52.222;4.510;2023-05-22T01:09:31;100919.50;;;10.54;100.00
27014;BME280;14556;52.222;4.510;2023-05-22T01:15:00;100880.78;;;10.49;100.00
27014;BME280;14556;52.222;4.510;2023-05-22T01:23:19;100879.31;;;10.47;100.00
27014;BME280;14556;52.222;4.510;2023-05-22T01:29:09;100879.31;;;10.47;100.00
27014;BME280;14556;52.222;4.510;2023-05-22T01:31:39;100870.31;;;10.48;100.00
27014;BME280;14556;52.222;4.510;2023-05-22T01:34:09;100871.31;;;10.47;100.00
27014;BME280;14556;52.222;4.510;2023-05-22T01:36:37;100851.31;;;10.43;100.00
27014;BME280;14556;52.222;4.510;2023-05-22T01:39:05;100853.41;;;10.47;100.00
27014;BME280;14556;52.222;4.510;2023-05-22T01:41:33;100849.47;;;10.43;100.00
27014;BME280;14556;52.222;4.510;2023-05-22T01:44:00;100846.59;;;10.45;100.00
27014;BME280;14556;52.222;4.510;2023-05-22T01:46:28;100851.31;;;10.43;100.00
27014;BME280;14556;52.222;4.510;2023-05-22T01:48:56;100822.03;;;10.27;100.00
27014;BME280;14556;52.222;4.510;2023-05-22T01:56:47;100822.09;;;10.41;100.00
27014;BME280;14556;52.222;4.510;2023-05-22T01:59:28;100821.28;;;10.40;100.00
27014;BME280;14556;52.222;4.510;2023-05-22T02:02:02;100814.47;;;10.38;100.00
27014;BME280;14556;52.222;4.510;2023-05-22T02:04:31;100812.25;;;10.42;100.00
27014;BME280;14556;52.222;4.510;2023-05-22T02:06:58;100799.66;;;10.42;100.00
27014;BME280;14556;52.222;4.510;2023-05-22T02:09:28;100786.50;;;10.40;100.00
27014;BME280;14556;52.222;4.510;2023-05-22T02:11:59;100789.59;;;10.37;100.00
27014;BME280;14556;52.222;4.510;2023-05-22T02:14:27;100793.31;;;10.43;100.00
27014;BME280;14556;52.222;4.510;2023-05-22T02:16:55;100770.22;;;10.35;100.00
27014;BME280;14556;52.222;4.510;2023-05-22T02:19:22;100779.38;;;10.48;100.00
27014;BME280;14556;52.222;4.510;2023-05-22T02:21:48;100773.19;;;10.47;100.00
27014;BME280;14556;52.222;4.510;2023-05-22T02:24:15;100769.72;;;10.54;100.00
27014;BME280;14556;52.222;4.510;2023-05-22T02:26:42;100765.38;;;10.52;100.00
27014;BME280;14556;52.222;4.510;2023-05-22T02:29:08;100784.13;;;10.52;100.00
27014;BME280;14556;52.222;4.510;2023-05-22T02:31:35;100785.28;;;10.43;100.00
27014;BME280;14556;52.222;4.510;2023-05-22T02:34:01;100770.47;;;10.40;100.00
27014;BME280;14556;52.222;4.510;2023-05-22T02:36:30;100768.69;;;10.48;100.00
27014;BME280;14556;52.222;4.510;2023-05-22T02:39:00;100777.13;;;10.51;100.00
27014;BME280;14556;52.222;4.510;2023-05-22T02:41:27;100772.56;;;10.45;100.00
27014;BME280;14556;52.222;4.510;2023-05-22T02:43:53;100776.69;;;10.48;100.00
27014;BME280;14556;52.222;4.510;2023-05-22T02:46:19;100776.03;;;10.46;100.00
27014;BME280;14556;52.222;4.510;2023-05-22T02:48:46;100782.69;;;10.50;100.00
27014;BME280;14556;52.222;4.510;2023-05-22T02:51:12;100758.97;;;10.40;100.00
27014;BME280;14556;52.222;4.510;2023-05-22T02:53:39;100784.94;;;10.53;100.00
27014;BME280;14556;52.222;4.510;2023-05-22T02:56:07;100784.53;;;10.56;100.00
27014;BME280;14556;52.222;4.510;2023-05-22T02:58:34;100780.22;;;10.55;100.00
27014;BME280;14556;52.222;4.510;2023-05-22T03:01:00;100781.50;;;10.59;100.00
27014;BME280;14556;52.222;4.510;2023-05-22T03:03:28;100780.03;;;10.57;100.00
27014;BME280;14556;52.222;4.510;2023-05-22T03:05:56;100772.19;;;10.55;100.00
27014;BME280;14556;52.222;4.510;2023-05-22T03:08:24;100790.09;;;10.55;100.00
27014;BME280;14556;52.222;4.510;2023-05-22T03:10:55;100786.63;;;10.54;100.00
27014;BME280;14556;52.222;4.510;2023-05-22T03:13:21;100774.19;;;10.46;100.00
27014;BME280;14556;52.222;4.510;2023-05-22T03:15:48;100782.69;;;10.50;100.00
27014;BME280;14556;52.222;4.510;2023-05-22T03:18:15;100787.41;;;10.55;100.00
27014;BME280;14556;52.222;4.510;2023-05-22T03:20:41;100798.13;;;10.55;100.00
27014;BME280;14556;52.222;4.510;2023-05-22T03:23:10;100776.28;;;10.51;100.00
27014;BME280;14556;52.222;4.510;2023-05-22T03:25:36;100785.16;;;10.51;100.00
27014;BME280;14556;52.222;4.510;2023-05-22T03:28:03;100790.28;;;10.53;100.00
27014;BME280;14556;52.222;4.510;2023-05-22T03:30:29;100778.28;;;10.42;100.00
27014;BME280;14556;52.222;4.510;2023-05-22T03:32:56;100788.66;;;10.52;100.00
27014;BME280;14556;52.222;4.510;2023-05-22T03:35:22;100790.06;;;10.48;100.00
27014;BME280;14556;52.222;4.510;2023-05-22T03:37:50;100773.53;;;10.37;100.00
27014;BME280;14556;52.222;4.510;2023-05-22T03:40:18;100789.06;;;10.49;100.00
27014;BME280;14556;52.222;4.510;2023-05-22T03:42:44;100780.38;;;10.47;100.00
27014;BME280;14556;52.222;4.510;2023-05-22T03:45:11;100784.88;;;10.46;100.00
27014;BME280;14556;52.222;4.510;2023-05-22T03:47:37;100793.94;;;10.45;100.00
27014;BME280;14556;52.222;4.510;2023-05-22T03:50:04;100784.88;;;10.46;100.00
27014;BME280;14556;52.222;4.510;2023-05-22T03:52:31;100778.72;;;10.46;100.00
27014;BME280;14556;52.222;4.510;2023-05-22T03:54:57;100777.91;;;10.45;100.00
27014;BME280;14556;52.222;4.510;2023-05-22T03:57:24;100783.88;;;10.47;100.00
27014;BME280;14556;52.222;4.510;2023-05-22T03:59:50;100783.50;;;10.50;100.00
27014;BME280;14556;52.222;4.510;2023-05-22T04:02:17;100787.00;;;10.51;100.00
27014;BME280;14556;52.222;4.510;2023-05-22T04:04:43;100783.50;;;10.50;100.00
27014;BME280;14556;52.222;4.510;2023-05-22T04:07:11;100779.81;;;10.51;100.00
27014;BME280;14556;52.222;4.510;2023-05-22T04:09:39;100783.94;;;10.54;100.00
27014;BME280;14556;52.222;4.510;2023-05-22T04:12:06;100775.50;;;10.50;100.00
27014;BME280;14556;52.222;4.510;2023-05-22T04:14:33;100771.78;;;10.51;100.00
27014;BME280;14556;52.222;4.510;2023-05-22T04:16:59;100772.63;;;10.52;100.00
27014;BME280;14556;52.222;4.510;2023-05-22T04:19:26;100781.06;;;10.56;100.00
27014;BME280;14556;52.222;4.510;2023-05-22T04:21:53;100783.09;;;10.54;100.00
27014;BME280;14556;52.222;4.510;2023-05-22T04:24:20;100782.69;;;10.57;100.00
27014;BME280;14556;52.222;4.510;2023-05-22T04:26:48;100787.41;;;10.55;100.00
27014;BME280;14556;52.222;4.510;2023-05-22T04:29:15;100789.91;;;10.63;100.00
27014;BME280;14556;52.222;4.510;2023-05-22T04:31:42;100786.63;;;10.61;100.00
27014;BME280;14556;52.222;4.510;2023-05-22T04:34:15;100782.28;;;10.60;100.00
27014;BME280;14556;52.222;4.510;2023-05-22T04:36:42;100787.63;;;10.60;100.00
27014;BME280;14556;52.222;4.510;2023-05-22T04:39:10;100806.59;;;10.65;100.00
27014;BME280;14556;52.222;4.510;2023-05-22T04:41:37;100793.00;;;10.60;100.00
27014;BME280;14556;52.222;4.510;2023-05-22T04:44:04;100789.50;;;10.59;100.00
27014;BME280;14556;52.222;4.510;2023-05-22T04:46:31;100796.28;;;10.62;100.00
27014;BME280;14556;52.222;4.510;2023-05-22T04:48:59;100796.72;;;10.66;100.00
27014;BME280;14556;52.222;4.510;2023-05-22T04:51:27;100784.56;;;10.63;100.00
27014;BME280;14556;52.222;4.510;2023-05-22T04:53:55;100787.88;;;10.72;100.00
27014;BME280;14556;52.222;4.510;2023-05-22T04:56:21;100786.25;;;10.71;100.00
27014;BME280;14556;52.222;4.510;2023-05-22T04:59:02;100784.41;;;10.71;100.00
27014;BME280;14556;52.222;4.510;2023-05-22T05:01:30;100790.59;;;10.79;100.00
27014;BME280;14556;52.222;4.510;2023-05-22T05:03:58;100788.16;;;10.84;100.00
27014;BME280;14556;52.222;4.510;2023-05-22T05:06:25;100789.59;;;10.86;100.00
27014;BME280;14556;52.222;4.510;2023-05-22T05:08:52;100795.78;;;10.87;100.00
27014;BME280;14556;52.222;4.510;2023-05-22T05:11:19;100801.31;;;10.85;100.00
27014;BME280;14556;52.222;4.510;2023-05-22T05:13:46;100807.31;;;10.94;100.00
27014;BME280;14556;52.222;4.510;2023-05-22T05:16:13;100807.53;;;10.99;100.00
27014;BME280;14556;52.222;4.510;2023-05-22T05:18:40;100820.31;;;11.04;100.00
27014;BME280;14556;52.222;4.510;2023-05-22T05:21:06;100821.16;;;11.05;100.00
27014;BME280;14556;52.222;4.510;2023-05-22T05:23:33;100817.84;;;11.03;100.00
27014;BME280;14556;52.222;4.510;2023-05-22T05:25:59;100828.56;;;11.09;100.00
27014;BME280;14556;52.222;4.510;2023-05-22T05:28:26;100824.03;;;11.03;100.00
27014;BME280;14556;52.222;4.510;2023-05-22T05:30:52;100832.66;;;11.12;100.00
27014;BME280;14556;52.222;4.510;2023-05-22T05:33:19;100822.59;;;11.14;100.00
27014;BME280;14556;52.222;4.510;2023-05-22T05:35:45;100826.31;;;11.13;100.00
27014;BME280;14556;52.222;4.510;2023-05-22T05:38:12;100831.47;;;11.21;100.00
27014;BME280;14556;52.222;4.510;2023-05-22T05:40:38;100839.28;;;11.30;100.00
27014;BME280;14556;52.222;4.510;2023-05-22T05:43:05;100837.03;;;11.33;100.00
27014;BME280;14556;52.222;4.510;2023-05-22T05:45:34;100838.28;;;11.31;100.00
27014;BME280;14556;52.222;4.510;2023-05-22T05:48:01;100842.22;;;11.42;100.00
27014;BME280;14556;52.222;4.510;2023-05-22T05:50:27;100847.56;;;11.42;100.00
27014;BME280;14556;52.222;4.510;2023-05-22T05:52:54;100853.94;;;11.47;100.00
27014;BME280;14556;52.222;4.510;2023-05-22T05:55:20;100838.28;;;11.44;100.00
27014;BME280;14556;52.222;4.510;2023-05-22T05:57:47;100848.19;;;11.51;100.00
27014;BME280;14556;52.222;4.510;2023-05-22T06:00:14;100840.34;;;11.49;100.00
27014;BME280;14556;52.222;4.510;2023-05-22T06:02:40;100836.25;;;11.46;100.00
27014;BME280;14556;52.222;4.510;2023-05-22T06:05:07;100829.22;;;11.45;100.00
27014;BME280;14556;52.222;4.510;2023-05-22T06:07:34;100839.53;;;11.55;100.00
27014;BME280;14556;52.222;4.510;2023-05-22T06:10:11;100837.66;;;11.56;100.00
27014;BME280;14556;52.222;4.510;2023-05-22T06:12:38;100849.00;;;11.51;100.00
27014;BME280;14556;52.222;4.510;2023-05-22T06:15:05;100821.19;;;11.39;100.00
27014;BME280;14556;52.222;4.510;2023-05-22T06:17:35;100819.53;;;11.31;100.00
27014;BME280;14556;52.222;4.510;2023-05-22T06:20:03;100842.22;;;11.48;100.00
27014;BME280;14556;52.222;4.510;2023-05-22T06:22:32;100839.97;;;11.59;100.00
27014;BME280;14556;52.222;4.510;2023-05-22T06:24:58;100838.72;;;11.68;100.00
27014;BME280;14556;52.222;4.510;2023-05-22T06:27:25;100829.03;;;11.67;100.00
27014;BME280;14556;52.222;4.510;2023-05-22T06:29:53;100833.34;;;11.75;100.00
27014;BME280;14556;52.222;4.510;2023-05-22T06:32:19;100838.31;;;11.71;100.00
27014;BME280;14556;52.222;4.510;2023-05-22T06:34:47;100834.38;;;11.74;100.00
27014;BME280;14556;52.222;4.510;2023-05-22T06:37:14;100840.38;;;11.83;100.00
27014;BME280;14556;52.222;4.510;2023-05-22T06:39:41;100839.75;;;11.81;100.00
27014;BME280;14556;52.222;4.510;2023-05-22T06:42:07;100850.47;;;11.74;100.00
27014;BME280;14556;52.222;4.510;2023-05-22T06:44:34;100847.78;;;11.74;100.00
27014;BME280;14556;52.222;4.510;2023-05-22T06:47:00;100855.81;;;11.74;100.00
27014;BME280;14556;52.222;4.510;2023-05-22T06:49:27;100881.41;;;11.90;100.00
27014;BME280;14556;52.222;4.510;2023-05-22T06:51:53;100881.81;;;12.14;100.00
27014;BME280;14556;52.222;4.510;2023-05-22T06:54:20;100861.38;;;12.00;100.00
27014;BME280;14556;52.222;4.510;2023-05-22T06:56:46;100879.13;;;12.07;100.00
27014;BME280;14556;52.222;4.510;2023-05-22T06:59:13;100878.69;;;12.04;100.00
27014;BME280;14556;52.222;4.510;2023-05-22T07:01:39;100866.75;;;12.20;100.00
27014;BME280;14556;52.222;4.510;2023-05-22T07:04:06;100873.75;;;12.28;100.00
27014;BME280;14556;52.222;4.510;2023-05-22T07:06:34;100863.41;;;12.31;100.00
27014;BME280;14556;52.222;4.510;2023-05-22T07:09:04;100869.81;;;12.37;100.00
27014;BME280;14556;52.222;4.510;2023-05-22T07:11:31;100870.00;;;12.42;100.00
27014;BME280;14556;52.222;4.510;2023-05-22T07:13:59;100876.03;;;12.31;100.00
27014;BME280;14556;52.222;4.510;2023-05-22T07:16:26;100883.00;;;12.45;100.00
27014;BME280;14556;52.222;4.510;2023-05-22T07:18:53;100858.00;;;12.59;100.00
27014;BME280;14556;52.222;4.510;2023-05-22T07:21:19;100861.69;;;12.64;100.00
27014;BME280;14556;52.222;4.510;2023-05-22T07:23:50;100858.16;;;12.71;100.00
27014;BME280;14556;52.222;4.510;2023-05-22T07:26:17;100862.06;;;12.75;100.00
27014;BME280;14556;52.222;4.510;2023-05-22T07:28:44;100851.75;;;12.65;100.00
27014;BME280;14556;52.222;4.510;2023-05-22T07:31:11;100869.44;;;12.86;100.00
27014;BME280;14556;52.222;4.510;2023-05-22T07:33:37;100867.38;;;12.88;100.00
27014;BME280;14556;52.222;4.510;2023-05-22T07:36:04;100849.63;;;12.80;100.00
27014;BME280;14556;52.222;4.510;2023-05-22T07:38:31;100863.16;;;13.06;100.00
27014;BME280;14556;52.222;4.510;2023-05-22T07:40:58;100870.13;;;13.14;100.00
27014;BME280;14556;52.222;4.510;2023-05-22T07:43:24;100869.72;;;13.10;100.00
27014;BME280;14556;52.222;4.510;2023-05-22T07:45:52;100864.53;;;13.15;100.00
27014;BME280;14556;52.222;4.510;2023-05-22T07:48:19;100867.97;;;13.29;100.00
27014;BME280;14556;52.222;4.510;2023-05-22T07:50:46;100871.66;;;13.35;100.00
27014;BME280;14556;52.222;4.510;2023-05-22T07:53:13;100875.84;;;13.63;100.00
27014;BME280;14556;52.222;4.510;2023-05-22T07:55:46;100870.91;;;13.60;100.00
27014;BME280;14556;52.222;4.510;2023-05-22T07:58:13;100876.56;;;13.77;100.00
27014;BME280;14556;52.222;4.510;2023-05-22T08:00:39;100872.19;;;13.83;100.00
27014;BME280;14556;52.222;4.510;2023-05-22T08:03:07;100878.75;;;13.87;100.00
27014;BME280;14556;52.222;4.510;2023-05-22T08:05:33;100874.13;;;13.95;100.00
27014;BME280;14556;52.222;4.510;2023-05-22T08:08:00;100870.63;;;13.94;100.00
27014;BME280;14556;52.222;4.510;2023-05-22T08:10:28;100858.63;;;14.16;100.00
27014;BME280;14556;52.222;4.510;2023-05-22T08:13:13;100871.63;;;14.19;100.00
27014;BME280;14556;52.222;4.510;2023-05-22T08:15:41;100867.69;;;14.21;100.00
27014;BME280;14556;52.222;4.510;2023-05-22T08:18:07;100871.94;;;14.29;100.00
27014;BME280;14556;52.222;4.510;2023-05-22T08:20:34;100874.78;;;14.34;100.00
27014;BME280;14556;52.222;4.510;2023-05-22T08:23:01;100873.97;;;14.53;100.00
27014;BME280;14556;52.222;4.510;2023-05-22T08:25:27;100873.44;;;14.62;100.00
27014;BME280;14556;52.222;4.510;2023-05-22T08:27:54;100870.84;;;14.56;100.00
27014;BME280;14556;52.222;4.510;2023-05-22T08:30:20;100882.72;;;14.67;100.00
27014;BME280;14556;52.222;4.510;2023-05-22T08:32:47;100888.63;;;14.75;100.00
27014;BME280;14556;52.222;4.510;2023-05-22T08:35:13;100878.38;;;15.03;100.00
27014;BME280;14556;52.222;4.510;2023-05-22T08:37:40;100882.16;;;15.14;100.00
27014;BME280;14556;52.222;4.510;2023-05-22T08:40:10;100869.59;;;15.08;100.00
27014;BME280;14556;52.222;4.510;2023-05-22T08:42:38;100862.84;;;15.17;100.00
27014;BME280;14556;52.222;4.510;2023-05-22T08:45:05;100865.72;;;15.34;100.00
27014;BME280;14556;52.222;4.510;2023-05-22T08:47:34;100866.50;;;15.23;100.00
27014;BME280;14556;52.222;4.510;2023-05-22T08:50:02;100862.94;;;15.53;100.00
27014;BME280;14556;52.222;4.510;2023-05-22T08:52:44;100872.09;;;15.76;100.00
27014;BME280;14556;52.222;4.510;2023-05-22T08:55:12;100858.63;;;15.76;100.00
27014;BME280;14556;52.222;4.510;2023-05-22T08:57:39;100840.31;;;15.54;100.00
27014;BME280;14556;52.222;4.510;2023-05-22T09:00:06;100860.50;;;15.64;100.00
27014;BME280;14556;52.222;4.510;2023-05-22T09:02:33;100853.09;;;15.71;100.00
27014;BME280;14556;52.222;4.510;2023-05-22T09:05:00;100853.94;;;15.71;100.00
27014;BME280;14556;52.222;4.510;2023-05-22T09:07:27;100848.06;;;15.75;100.00
27014;BME280;14556;52.222;4.510;2023-05-22T09:09:55;100851.38;;;15.77;100.00
27014;BME280;14556;52.222;4.510;2023-05-22T09:12:24;100849.38;;;15.84;100.00
27014;BME280;14556;52.222;4.510;2023-05-22T09:14:51;100861.97;;;16.02;100.00
27014;BME280;14556;52.222;4.510;2023-05-22T09:17:20;100855.28;;;16.05;100.00
27014;BME280;14556;52.222;4.510;2023-05-22T09:19:47;100859.03;;;16.04;100.00
27014;BME280;14556;52.222;4.510;2023-05-22T09:22:13;100846.34;;;16.04;100.00
27014;BME280;14556;52.222;4.510;2023-05-22T09:24:41;100854.44;;;16.04;100.00
27014;BME280;14556;52.222;4.510;2023-05-22T09:27:09;100848.81;;;16.06;100.00
27014;BME280;14556;52.222;4.510;2023-05-22T09:29:55;100849.88;;;16.17;100.00
27014;BME280;14556;52.222;4.510;2023-05-22T09:32:22;100847.16;;;16.17;100.00
27014;BME280;14556;52.222;4.510;2023-05-22T09:34:49;100859.00;;;16.40;100.00
27014;BME280;14556;52.222;4.510;2023-05-22T09:37:17;100861.69;;;16.40;100.00
27014;BME280;14556;52.222;4.510;2023-05-22T09:39:47;100859.22;;;16.38;100.00
27014;BME280;14556;52.222;4.510;2023-05-22T09:42:16;100852.66;;;16.34;100.00
27014;BME280;14556;52.222;4.510;2023-05-22T09:44:50;100867.91;;;16.40;100.00
27014;BME280;14556;52.222;4.510;2023-05-22T09:47:16;100867.22;;;16.33;100.00
27014;BME280;14556;52.222;4.510;2023-05-22T09:49:44;100868.50;;;16.42;100.00
27014;BME280;14556;52.222;4.510;2023-05-22T09:52:11;100870.59;;;16.52;100.00
27014;BME280;14556;52.222;4.510;2023-05-22T09:54:45;100876.59;;;16.54;100.00
27014;BME280;14556;52.222;4.510;2023-05-22T09:57:16;100877.25;;;16.74;100.00
27014;BME280;14556;52.222;4.510;2023-05-22T09:59:49;100867.47;;;16.73;100.00
27014;BME280;14556;52.222;4.510;2023-05-22T10:02:21;100871.72;;;16.68;100.00
27014;BME280;14556;52.222;4.510;2023-05-22T10:04:48;100876.31;;;16.68;100.00
27014;BME280;14556;52.222;4.510;2023-05-22T10:07:23;100884.06;;;16.64;100.00
27014;BME280;14556;52.222;4.510;2023-05-22T10:10:06;100877.84;;;16.64;100.00
27014;BME280;14556;52.222;4.510;2023-05-22T10:12:47;100877.47;;;16.60;100.00
27014;BME280;14556;52.222;4.510;2023-05-22T10:15:16;100878.41;;;16.66;100.00
27014;BME280;14556;52.222;4.510;2023-05-22T10:17:43;100881.31;;;16.76;100.00
27014;BME280;14556;52.222;4.510;2023-05-22T10:20:11;100866.78;;;16.77;100.00
27014;BME280;14556;52.222;4.510;2023-05-22T10:22:37;100876.25;;;16.80;100.00
27014;BME280;14556;52.222;4.510;2023-05-22T10:25:04;100860.16;;;16.85;100.00
27014;BME280;14556;52.222;4.510;2023-05-22T10:27:34;100873.75;;;16.90;100.00
27014;BME280;14556;52.222;4.510;2023-05-22T10:30:27;100868.56;;;17.01;100.00
27014;BME280;14556;52.222;4.510;2023-05-22T10:33:08;100860.19;;;17.02;100.00
27014;BME280;14556;52.222;4.510;2023-05-22T10:35:44;100862.34;;;17.00;100.00
27014;BME280;14556;52.222;4.510;2023-05-22T10:38:30;100857.03;;;17.06;100.00
27014;BME280;14556;52.222;4.510;2023-05-22T10:41:02;100862.88;;;17.14;100.00
27014;BME280;14556;52.222;4.510;2023-05-22T10:43:29;100862.16;;;17.19;100.00
27014;BME280;14556;52.222;4.510;2023-05-22T10:46:02;100840.00;;;17.05;100.00
27014;BME280;14556;52.222;4.510;2023-05-22T10:48:36;100853.97;;;17.14;100.00
27014;BME280;14556;52.222;4.510;2023-05-22T10:51:04;100857.69;;;17.25;100.00
27014;BME280;14556;52.222;4.510;2023-05-22T10:53:31;100859.25;;;17.38;100.00
27014;BME280;14556;52.222;4.510;2023-05-22T10:55:59;100844.97;;;17.43;100.00
27014;BME280;14556;52.222;4.510;2023-05-22T10:58:34;100848.00;;;17.46;100.00
27014;BME280;14556;52.222;4.510;2023-05-22T11:01:15;100829.16;;;17.51;100.00
27014;BME280;14556;52.222;4.510;2023-05-22T11:04:09;100829.66;;;17.48;100.00
27014;BME280;14556;52.222;4.510;2023-05-22T11:06:48;100838.44;;;17.56;100.00
27014;BME280;14556;52.222;4.510;2023-05-22T11:09:30;100841.97;;;17.73;100.00
27014;BME280;14556;52.222;4.510;2023-05-22T11:12:18;100831.31;;;17.67;100.00
27014;BME280;14556;52.222;4.510;2023-05-22T11:15:01;100844.16;;;17.76;100.00
27014;BME280;14556;52.222;4.510;2023-05-22T11:17:33;100841.47;;;17.76;100.00
27014;BME280;14556;52.222;4.510;2023-05-22T11:22:41;100849.06;;;17.80;100.00
27014;BME280;14556;52.222;4.510;2023-05-22T11:25:10;100846.88;;;17.76;100.00
27014;BME280;14556;52.222;4.510;2023-05-22T11:27:41;100852.19;;;17.71;100.00
27014;BME280;14556;52.222;4.510;2023-05-22T11:30:09;100840.06;;;17.57;100.00
27014;BME280;14556;52.222;4.510;2023-05-22T11:32:37;100856.38;;;17.45;100.00
27014;BME280;14556;52.222;4.510;2023-05-22T11:35:04;100854.75;;;17.44;100.00
27014;BME280;14556;52.222;4.510;2023-05-22T11:37:36;100863.19;;;17.47;100.00
27014;BME280;14556;52.222;4.510;2023-05-22T11:40:04;100854.25;;;17.47;100.00
27014;BME280;14556;52.222;4.510;2023-05-22T11:42:31;100860.56;;;17.52;100.00
27014;BME280;14556;52.222;4.510;2023-05-22T11:44:59;100851.72;;;17.40;100.00
27014;BME280;14556;52.222;4.510;2023-05-22T11:47:26;100849.75;;;17.35;100.00
27014;BME280;14556;52.222;4.510;2023-05-22T11:49:55;100866.94;;;17.29;100.00
27014;BME280;14556;52.222;4.510;2023-05-22T11:52:22;100858.31;;;17.32;100.00
27014;BME280;14556;52.222;4.510;2023-05-22T11:54:52;100843.50;;;17.35;100.00
27014;BME280;14556;52.222;4.510;2023-05-22T11:57:19;100858.19;;;17.56;100.00
27014;BME280;14556;52.222;4.510;2023-05-22T11:59:46;100842.03;;;17.44;100.00
27014;BME280;14556;52.222;4.510;2023-05-22T12:02:14;100862.44;;;17.52;100.00
27014;BME280;14556;52.222;4.510;2023-05-22T12:04:41;100870.22;;;17.48;100.00
27014;BME280;14556;52.222;4.510;2023-05-22T12:07:08;100861.88;;;17.50;100.00
27014;BME280;14556;52.222;4.510;2023-05-22T12:09:37;100869.09;;;17.61;100.00
27014;BME280;14556;52.222;4.510;2023-05-22T12:12:04;100862.19;;;17.54;100.00
27014;BME280;14556;52.222;4.510;2023-05-22T12:14:31;100877.13;;;17.73;100.00
27014;BME280;14556;52.222;4.510;2023-05-22T12:16:57;100874.34;;;17.68;100.00
27014;BME280;14556;52.222;4.510;2023-05-22T12:19:25;100877.75;;;17.63;100.00
27014;BME280;14556;52.222;4.510;2023-05-22T12:21:53;100868.59;;;17.47;100.00
27014;BME280;14556;52.222;4.510;2023-05-22T12:24:19;100884.50;;;17.44;100.00
27014;BME280;14556;52.222;4.510;2023-05-22T12:26:49;100876.28;;;17.38;100.00
27014;BME280;14556;52.222;4.510;2023-05-22T12:29:17;100890.16;;;17.42;100.00
27014;BME280;14556;52.222;4.510;2023-05-22T12:31:44;100872.34;;;17.46;100.00
27014;BME280;14556;52.222;4.510;2023-05-22T12:34:14;100888.28;;;17.60;100.00
27014;BME280;14556;52.222;4.510;2023-05-22T12:36:44;100885.66;;;17.65;100.00
27014;BME280;14556;52.222;4.510;2023-05-22T12:39:17;100878.75;;;17.57;100.00
27014;BME280;14556;52.222;4.510;2023-05-22T12:41:44;100871.81;;;17.61;100.00
27014;BME280;14556;52.222;4.510;2023-05-22T12:44:15;100878.09;;;17.67;100.00
27014;BME280;14556;52.222;4.510;2023-05-22T12:46:41;100879.25;;;17.54;100.00
27014;BME280;14556;52.222;4.510;2023-05-22T12:49:09;100872.44;;;17.51;100.00
27014;BME280;14556;52.222;4.510;2023-05-22T12:51:36;100873.50;;;17.68;100.00
27014;BME280;14556;52.222;4.510;2023-05-22T12:54:03;100879.50;;;17.87;100.00
27014;BME280;14556;52.222;4.510;2023-05-22T12:56:30;100877.28;;;17.84;100.00
27014;BME280;14556;52.222;4.510;2023-05-22T12:58:57;100862.94;;;17.83;100.00
27014;BME280;14556;52.222;4.510;2023-05-22T13:01:24;100872.78;;;17.90;100.00
27014;BME280;14556;52.222;4.510;2023-05-22T13:03:51;100884.09;;;18.04;100.00
27014;BME280;14556;52.222;4.510;2023-05-22T13:06:18;100874.38;;;18.08;100.00